NKS1820 KBHM-KFLL
Flight info
| Callsign | NKS1820 |
|---|---|
| Flight time | 1h 29m |
| Altitude | 37000 |
| Route | GUMMP ACORI TEEKY4 |
| Aircraft | A320/M-SDE3FGHIRWY/LB1 |
Departure
| Time | 2026-05-03 20:53 |
|---|---|
| Airport | Birmingham-Shuttlesworth International Airport (KBHM) |
Arrival
| Time | 2026-05-03 22:22 |
|---|---|
| Airport | Fort Lauderdale Hollywood International Airport (KFLL) |
| Time | Latitude | Longitude | Altitude | Speed | Heading |
|---|---|---|---|---|---|
| 2026-05-03 20:32 | 33.56282 | -86.75222 | 636 ft | 0 kts | 144° |
| 2026-05-03 20:40 | 33.56291 | -86.75229 | 634 ft | 3 kts | 144° |
| 2026-05-03 20:40 | 33.56307 | -86.75244 | 636 ft | 3 kts | 143° |
| 2026-05-03 20:40 | 33.56324 | -86.75258 | 625 ft | 3 kts | 148° |
| 2026-05-03 20:40 | 33.56341 | -86.75269 | 625 ft | 3 kts | 174° |
| 2026-05-03 20:41 | 33.56354 | -86.75267 | 625 ft | 2 kts | 236° |
| 2026-05-03 20:41 | 33.56357 | -86.75262 | 630 ft | 0 kts | 236° |
| 2026-05-03 20:42 | 33.56356 | -86.75263 | 636 ft | 1 kts | 236° |
| 2026-05-03 20:42 | 33.56354 | -86.75267 | 625 ft | 0 kts | 236° |
| 2026-05-03 20:43 | 33.56354 | -86.75268 | 625 ft | 1 kts | 236° |
| 2026-05-03 20:43 | 33.56341 | -86.75295 | 625 ft | 0 kts | 250° |
| 2026-05-03 20:45 | 33.56341 | -86.75297 | 625 ft | 1 kts | 250° |
| 2026-05-03 20:46 | 33.56339 | -86.75303 | 626 ft | 1 kts | 252° |
| 2026-05-03 20:46 | 33.56339 | -86.75314 | 626 ft | 2 kts | 270° |
| 2026-05-03 20:46 | 33.56354 | -86.75355 | 632 ft | 7 kts | 296° |
| 2026-05-03 20:46 | 33.56360 | -86.75417 | 628 ft | 8 kts | 259° |
| 2026-05-03 20:47 | 33.56331 | -86.75476 | 636 ft | 10 kts | 234° |
| 2026-05-03 20:47 | 33.56282 | -86.75559 | 632 ft | 14 kts | 234° |
| 2026-05-03 20:47 | 33.56220 | -86.75666 | 626 ft | 17 kts | 236° |
| 2026-05-03 20:47 | 33.56150 | -86.75789 | 630 ft | 20 kts | 236° |
| 2026-05-03 20:48 | 33.56067 | -86.75934 | 629 ft | 22 kts | 236° |
| 2026-05-03 20:48 | 33.55974 | -86.76099 | 619 ft | 26 kts | 236° |
| 2026-05-03 20:48 | 33.55867 | -86.76283 | 617 ft | 23 kts | 234° |
| 2026-05-03 20:48 | 33.55783 | -86.76429 | 619 ft | 23 kts | 236° |
| 2026-05-03 20:49 | 33.55688 | -86.76591 | 616 ft | 24 kts | 231° |
| 2026-05-03 20:49 | 33.55594 | -86.76755 | 613 ft | 25 kts | 234° |
| 2026-05-03 20:49 | 33.55502 | -86.76914 | 602 ft | 18 kts | 237° |
| 2026-05-03 20:49 | 33.55436 | -86.77035 | 596 ft | 10 kts | 235° |
| 2026-05-03 20:50 | 33.55426 | -86.77058 | 596 ft | 1 kts | 249° |
| 2026-05-03 20:51 | 33.55424 | -86.77072 | 595 ft | 5 kts | 261° |
| 2026-05-03 20:51 | 33.55464 | -86.77117 | 595 ft | 12 kts | 356° |
| 2026-05-03 20:51 | 33.55524 | -86.77074 | 598 ft | 3 kts | 52° |
| 2026-05-03 20:52 | 33.55560 | -86.77011 | 601 ft | 32 kts | 55° |
| 2026-05-03 20:52 | 33.55828 | -86.76552 | 608 ft | 99 kts | 55° |
| 2026-05-03 20:52 | 33.56324 | -86.75695 | 629 ft | 148 kts | 55° |
| 2026-05-03 20:52 | 33.56973 | -86.74565 | 839 ft | 169 kts | 53° |
| 2026-05-03 20:53 | 33.57550 | -86.73364 | 1595 ft | 169 kts | 69° |
| 2026-05-03 20:53 | 33.57570 | -86.71923 | 2174 ft | 182 kts | 99° |
| 2026-05-03 20:53 | 33.57258 | -86.70357 | 2479 ft | 204 kts | 105° |
| 2026-05-03 20:53 | 33.56852 | -86.68626 | 2716 ft | 226 kts | 105° |
| 2026-05-03 20:54 | 33.56396 | -86.66734 | 3013 ft | 252 kts | 105° |
| 2026-05-03 20:54 | 33.55323 | -86.62434 | 3913 ft | 280 kts | 106° |
| 2026-05-03 20:54 | 33.54770 | -86.60195 | 3995 ft | 278 kts | 105° |
| 2026-05-03 20:55 | 33.54221 | -86.57963 | 4010 ft | 278 kts | 105° |
| 2026-05-03 20:55 | 33.53671 | -86.55755 | 4015 ft | 276 kts | 105° |
| 2026-05-03 20:55 | 33.53086 | -86.53551 | 4324 ft | 280 kts | 115° |
| 2026-05-03 20:55 | 33.51974 | -86.51656 | 5321 ft | 280 kts | 137° |
| 2026-05-03 20:56 | 33.50315 | -86.50430 | 6147 ft | 285 kts | 162° |
| 2026-05-03 20:56 | 33.48346 | -86.50167 | 6926 ft | 288 kts | 189° |
| 2026-05-03 20:56 | 33.46377 | -86.50673 | 7712 ft | 290 kts | 196° |
| 2026-05-03 20:56 | 33.44407 | -86.51251 | 8541 ft | 292 kts | 196° |
| 2026-05-03 20:57 | 33.42425 | -86.51836 | 9388 ft | 295 kts | 196° |
| 2026-05-03 20:57 | 33.40429 | -86.52423 | 10205 ft | 297 kts | 197° |
| 2026-05-03 20:57 | 33.38343 | -86.53039 | 10466 ft | 320 kts | 196° |
| 2026-05-03 20:57 | 33.36109 | -86.53694 | 10746 ft | 338 kts | 196° |
| 2026-05-03 20:58 | 33.33828 | -86.54350 | 11347 ft | 344 kts | 196° |
| 2026-05-03 20:58 | 33.31459 | -86.55022 | 12028 ft | 347 kts | 196° |
| 2026-05-03 20:58 | 33.29097 | -86.55694 | 12747 ft | 350 kts | 196° |
| 2026-05-03 20:58 | 33.26715 | -86.56372 | 13431 ft | 353 kts | 196° |
| 2026-05-03 20:59 | 33.25130 | -86.56823 | 13883 ft | 354 kts | 196° |
| 2026-05-03 20:59 | 33.22722 | -86.57510 | 14505 ft | 357 kts | 196° |
| 2026-05-03 20:59 | 33.19500 | -86.58431 | 15282 ft | 361 kts | 196° |
| 2026-05-03 20:59 | 33.17039 | -86.59136 | 15867 ft | 364 kts | 196° |
| 2026-05-03 21:00 | 33.15370 | -86.59615 | 16255 ft | 366 kts | 196° |
| 2026-05-03 21:00 | 33.13721 | -86.60089 | 16634 ft | 368 kts | 196° |
| 2026-05-03 21:00 | 33.10371 | -86.60895 | 17369 ft | 375 kts | 187° |
| 2026-05-03 21:00 | 33.07743 | -86.60873 | 17962 ft | 381 kts | 175° |
| 2026-05-03 21:01 | 33.05137 | -86.60212 | 18531 ft | 386 kts | 164° |
| 2026-05-03 21:01 | 33.02652 | -86.58938 | 19041 ft | 391 kts | 155° |
| 2026-05-03 21:01 | 33.00209 | -86.57486 | 19557 ft | 394 kts | 155° |
| 2026-05-03 21:01 | 32.97748 | -86.56028 | 20082 ft | 396 kts | 156° |
| 2026-05-03 21:02 | 32.95266 | -86.54562 | 20603 ft | 399 kts | 156° |
| 2026-05-03 21:02 | 32.92770 | -86.53088 | 21105 ft | 402 kts | 156° |
| 2026-05-03 21:02 | 32.90261 | -86.51608 | 21587 ft | 404 kts | 156° |
| 2026-05-03 21:02 | 32.87731 | -86.50116 | 22055 ft | 407 kts | 156° |
| 2026-05-03 21:03 | 32.85184 | -86.48614 | 22517 ft | 409 kts | 156° |
| 2026-05-03 21:03 | 32.82624 | -86.47105 | 22983 ft | 412 kts | 156° |
| 2026-05-03 21:03 | 32.80052 | -86.45587 | 23461 ft | 414 kts | 156° |
| 2026-05-03 21:03 | 32.77464 | -86.44059 | 23884 ft | 417 kts | 156° |
| 2026-05-03 21:04 | 32.74860 | -86.42522 | 24261 ft | 419 kts | 157° |
| 2026-05-03 21:04 | 32.72244 | -86.40981 | 24632 ft | 421 kts | 157° |
| 2026-05-03 21:04 | 32.69606 | -86.39430 | 25009 ft | 423 kts | 157° |
| 2026-05-03 21:04 | 32.66959 | -86.37876 | 25374 ft | 426 kts | 157° |
| 2026-05-03 21:05 | 32.64288 | -86.36313 | 25750 ft | 428 kts | 158° |
| 2026-05-03 21:05 | 32.61612 | -86.34747 | 26112 ft | 431 kts | 158° |
| 2026-05-03 21:05 | 32.58915 | -86.33171 | 26472 ft | 433 kts | 158° |
| 2026-05-03 21:05 | 32.56208 | -86.31588 | 26814 ft | 435 kts | 159° |
| 2026-05-03 21:06 | 32.53489 | -86.29997 | 27180 ft | 437 kts | 159° |
| 2026-05-03 21:06 | 32.50757 | -86.28398 | 27545 ft | 439 kts | 159° |
| 2026-05-03 21:06 | 32.48013 | -86.26792 | 27907 ft | 441 kts | 159° |
| 2026-05-03 21:06 | 32.45254 | -86.25174 | 28278 ft | 443 kts | 159° |
| 2026-05-03 21:07 | 32.42480 | -86.23551 | 28662 ft | 446 kts | 160° |
| 2026-05-03 21:07 | 32.39690 | -86.21925 | 29019 ft | 448 kts | 160° |
| 2026-05-03 21:07 | 32.36925 | -86.20316 | 29367 ft | 450 kts | 160° |
| 2026-05-03 21:07 | 32.34109 | -86.18680 | 29719 ft | 452 kts | 160° |
| 2026-05-03 21:08 | 32.31278 | -86.17031 | 30062 ft | 455 kts | 160° |
| 2026-05-03 21:08 | 32.28433 | -86.15372 | 30363 ft | 457 kts | 161° |
| 2026-05-03 21:08 | 32.25574 | -86.13706 | 30697 ft | 457 kts | 162° |
| 2026-05-03 21:08 | 32.22725 | -86.12046 | 31140 ft | 455 kts | 162° |
| 2026-05-03 21:09 | 32.19888 | -86.10392 | 31578 ft | 454 kts | 162° |
| 2026-05-03 21:09 | 32.17054 | -86.08747 | 32035 ft | 452 kts | 162° |
| 2026-05-03 21:09 | 32.14236 | -86.07118 | 32484 ft | 450 kts | 162° |
| 2026-05-03 21:09 | 32.11428 | -86.05495 | 32925 ft | 449 kts | 162° |
| 2026-05-03 21:10 | 32.08632 | -86.03874 | 33366 ft | 447 kts | 163° |
| 2026-05-03 21:10 | 32.05846 | -86.02257 | 33803 ft | 445 kts | 163° |
| 2026-05-03 21:10 | 32.03069 | -86.00650 | 34227 ft | 444 kts | 163° |
| 2026-05-03 21:10 | 32.00334 | -85.99070 | 34547 ft | 443 kts | 163° |
| 2026-05-03 21:11 | 31.97567 | -85.97474 | 34864 ft | 443 kts | 163° |
| 2026-05-03 21:11 | 31.94799 | -85.95877 | 35161 ft | 443 kts | 163° |
| 2026-05-03 21:11 | 31.92030 | -85.94281 | 35455 ft | 443 kts | 164° |
| 2026-05-03 21:11 | 31.89262 | -85.92690 | 35732 ft | 443 kts | 164° |
| 2026-05-03 21:12 | 31.86490 | -85.91097 | 36017 ft | 443 kts | 164° |
| 2026-05-03 21:12 | 31.83714 | -85.89506 | 36297 ft | 443 kts | 164° |
| 2026-05-03 21:12 | 31.80938 | -85.87915 | 36570 ft | 444 kts | 164° |
| 2026-05-03 21:12 | 31.78235 | -85.86089 | 36834 ft | 455 kts | 155° |
| 2026-05-03 21:13 | 31.75747 | -85.83718 | 37071 ft | 468 kts | 145° |
| 2026-05-03 21:13 | 31.73491 | -85.80887 | 37145 ft | 477 kts | 141° |
| 2026-05-03 21:13 | 31.69024 | -85.75061 | 37153 ft | 481 kts | 141° |
| 2026-05-03 21:14 | 31.64547 | -85.69218 | 37148 ft | 481 kts | 141° |
| 2026-05-03 21:14 | 31.60055 | -85.63390 | 37134 ft | 481 kts | 141° |
| 2026-05-03 21:15 | 31.55561 | -85.57574 | 37130 ft | 481 kts | 141° |
| 2026-05-03 21:15 | 31.51063 | -85.51759 | 37136 ft | 482 kts | 141° |
| 2026-05-03 21:16 | 31.46553 | -85.45936 | 37174 ft | 483 kts | 142° |
| 2026-05-03 21:16 | 31.42040 | -85.40124 | 37130 ft | 482 kts | 142° |
| 2026-05-03 21:17 | 31.38292 | -85.35300 | 37148 ft | 482 kts | 142° |
| 2026-05-03 21:17 | 31.33015 | -85.28517 | 37160 ft | 482 kts | 142° |
| 2026-05-03 21:18 | 31.28524 | -85.22749 | 37175 ft | 482 kts | 142° |
| 2026-05-03 21:18 | 31.24001 | -85.16948 | 37176 ft | 483 kts | 142° |
| 2026-05-03 21:19 | 31.19447 | -85.11112 | 37168 ft | 483 kts | 142° |
| 2026-05-03 21:19 | 31.14945 | -85.05365 | 37169 ft | 482 kts | 143° |
| 2026-05-03 21:20 | 31.10387 | -84.99563 | 37125 ft | 481 kts | 143° |
| 2026-05-03 21:20 | 31.05892 | -84.93851 | 37145 ft | 481 kts | 143° |
| 2026-05-03 21:21 | 31.01365 | -84.88098 | 37152 ft | 481 kts | 143° |
| 2026-05-03 21:21 | 30.96843 | -84.82350 | 37158 ft | 481 kts | 143° |
| 2026-05-03 21:22 | 30.92313 | -84.76599 | 37152 ft | 481 kts | 143° |
| 2026-05-03 21:22 | 30.87781 | -84.70860 | 37154 ft | 481 kts | 143° |
| 2026-05-03 21:23 | 30.83244 | -84.65131 | 37104 ft | 481 kts | 144° |
| 2026-05-03 21:23 | 30.78702 | -84.59416 | 37122 ft | 481 kts | 144° |
| 2026-05-03 21:24 | 30.74149 | -84.53700 | 37140 ft | 482 kts | 144° |
| 2026-05-03 21:24 | 30.69607 | -84.47973 | 37145 ft | 482 kts | 144° |
| 2026-05-03 21:25 | 30.65065 | -84.42247 | 37146 ft | 482 kts | 144° |
| 2026-05-03 21:25 | 30.60517 | -84.36540 | 37141 ft | 481 kts | 144° |
| 2026-05-03 21:26 | 30.55964 | -84.30845 | 37144 ft | 481 kts | 144° |
| 2026-05-03 21:26 | 30.51407 | -84.25152 | 37134 ft | 481 kts | 144° |
| 2026-05-03 21:27 | 30.46860 | -84.19465 | 37142 ft | 481 kts | 144° |
| 2026-05-03 21:27 | 30.42309 | -84.13795 | 37143 ft | 480 kts | 145° |
| 2026-05-03 21:28 | 30.37659 | -84.08309 | 37136 ft | 467 kts | 153° |
| 2026-05-03 21:28 | 30.35076 | -84.06125 | 37139 ft | 454 kts | 161° |
| 2026-05-03 21:28 | 30.32369 | -84.04309 | 37143 ft | 449 kts | 163° |
| 2026-05-03 21:29 | 30.26982 | -84.00747 | 37142 ft | 449 kts | 163° |
| 2026-05-03 21:29 | 30.21560 | -83.97147 | 37092 ft | 448 kts | 163° |
| 2026-05-03 21:30 | 30.16147 | -83.93559 | 37123 ft | 448 kts | 163° |
| 2026-05-03 21:30 | 30.10723 | -83.89975 | 37114 ft | 449 kts | 163° |
| 2026-05-03 21:31 | 30.05295 | -83.86387 | 37121 ft | 449 kts | 163° |
| 2026-05-03 21:31 | 29.99875 | -83.82811 | 37125 ft | 449 kts | 163° |
| 2026-05-03 21:32 | 29.94456 | -83.79228 | 37088 ft | 449 kts | 164° |
| 2026-05-03 21:32 | 29.89031 | -83.75660 | 37102 ft | 449 kts | 164° |
| 2026-05-03 21:33 | 29.83591 | -83.72087 | 37116 ft | 449 kts | 164° |
| 2026-05-03 21:33 | 29.78199 | -83.68543 | 37123 ft | 450 kts | 164° |
| 2026-05-03 21:34 | 29.72767 | -83.64976 | 37123 ft | 449 kts | 164° |
| 2026-05-03 21:34 | 29.67333 | -83.61419 | 37087 ft | 449 kts | 164° |
| 2026-05-03 21:35 | 29.61901 | -83.57871 | 37083 ft | 449 kts | 164° |
| 2026-05-03 21:35 | 29.56462 | -83.54315 | 37098 ft | 450 kts | 164° |
| 2026-05-03 21:36 | 29.51023 | -83.50768 | 37100 ft | 449 kts | 164° |
| 2026-05-03 21:36 | 29.45584 | -83.47232 | 37113 ft | 449 kts | 164° |
| 2026-05-03 21:37 | 29.40143 | -83.43686 | 37108 ft | 450 kts | 164° |
| 2026-05-03 21:37 | 29.34738 | -83.40166 | 37074 ft | 449 kts | 165° |
| 2026-05-03 21:38 | 29.29300 | -83.36640 | 37091 ft | 449 kts | 165° |
| 2026-05-03 21:38 | 29.23860 | -83.33114 | 37102 ft | 449 kts | 164° |
| 2026-05-03 21:39 | 29.18429 | -83.29539 | 37103 ft | 450 kts | 164° |
| 2026-05-03 21:39 | 29.13009 | -83.25964 | 37105 ft | 449 kts | 164° |
| 2026-05-03 21:40 | 29.07579 | -83.22395 | 37033 ft | 449 kts | 165° |
| 2026-05-03 21:40 | 29.02156 | -83.18846 | 37067 ft | 450 kts | 165° |
| 2026-05-03 21:41 | 28.96716 | -83.15293 | 37071 ft | 451 kts | 164° |
| 2026-05-03 21:41 | 28.91274 | -83.11735 | 37082 ft | 450 kts | 164° |
| 2026-05-03 21:42 | 28.85866 | -83.08196 | 37088 ft | 450 kts | 164° |
| 2026-05-03 21:42 | 28.80431 | -83.04650 | 37092 ft | 450 kts | 165° |
| 2026-05-03 21:43 | 28.74996 | -83.01111 | 37046 ft | 450 kts | 164° |
| 2026-05-03 21:43 | 28.70441 | -82.98155 | 37056 ft | 450 kts | 165° |
| 2026-05-03 21:44 | 28.65023 | -82.94639 | 37073 ft | 451 kts | 165° |
| 2026-05-03 21:44 | 28.59575 | -82.91105 | 37081 ft | 451 kts | 164° |
| 2026-05-03 21:45 | 28.54123 | -82.87568 | 37087 ft | 451 kts | 165° |
| 2026-05-03 21:45 | 28.48669 | -82.84038 | 37098 ft | 451 kts | 165° |
| 2026-05-03 21:46 | 28.43213 | -82.80512 | 37041 ft | 451 kts | 164° |
| 2026-05-03 21:46 | 28.37755 | -82.76985 | 37045 ft | 451 kts | 164° |
| 2026-05-03 21:47 | 28.32293 | -82.73458 | 37071 ft | 452 kts | 164° |
| 2026-05-03 21:47 | 28.26820 | -82.69935 | 37092 ft | 452 kts | 164° |
| 2026-05-03 21:48 | 28.21354 | -82.66420 | 37097 ft | 452 kts | 164° |
| 2026-05-03 21:48 | 28.15882 | -82.62905 | 37052 ft | 452 kts | 164° |
| 2026-05-03 21:49 | 28.10402 | -82.59393 | 37057 ft | 453 kts | 163° |
| 2026-05-03 21:49 | 28.04918 | -82.55869 | 37075 ft | 453 kts | 163° |
| 2026-05-03 21:50 | 27.99383 | -82.52547 | 37079 ft | 440 kts | 172° |
| 2026-05-03 21:50 | 27.93699 | -82.50455 | 37084 ft | 431 kts | 176° |
| 2026-05-03 21:51 | 27.87976 | -82.48427 | 37068 ft | 431 kts | 176° |
| 2026-05-03 21:51 | 27.82253 | -82.46395 | 37030 ft | 432 kts | 175° |
| 2026-05-03 21:52 | 27.76516 | -82.44363 | 37045 ft | 432 kts | 175° |
| 2026-05-03 21:52 | 27.70773 | -82.42322 | 37056 ft | 433 kts | 175° |
| 2026-05-03 21:53 | 27.65036 | -82.40288 | 37073 ft | 432 kts | 175° |
| 2026-05-03 21:53 | 27.59278 | -82.38258 | 37063 ft | 433 kts | 175° |
| 2026-05-03 21:54 | 27.53530 | -82.36232 | 37074 ft | 433 kts | 175° |
| 2026-05-03 21:54 | 27.47774 | -82.34207 | 37071 ft | 433 kts | 175° |
| 2026-05-03 21:55 | 27.42016 | -82.32188 | 37077 ft | 433 kts | 175° |
| 2026-05-03 21:55 | 27.36347 | -82.29804 | 37073 ft | 452 kts | 164° |
| 2026-05-03 21:56 | 27.30798 | -82.26284 | 36813 ft | 467 kts | 163° |
| 2026-05-03 21:56 | 27.27953 | -82.24478 | 36562 ft | 471 kts | 163° |
| 2026-05-03 21:56 | 27.25103 | -82.22657 | 36267 ft | 471 kts | 162° |
| 2026-05-03 21:57 | 27.22261 | -82.20838 | 36021 ft | 470 kts | 162° |
| 2026-05-03 21:57 | 27.19427 | -82.19029 | 35780 ft | 468 kts | 162° |
| 2026-05-03 21:57 | 27.16587 | -82.17227 | 35123 ft | 470 kts | 162° |
| 2026-05-03 21:57 | 27.13726 | -82.15423 | 34493 ft | 471 kts | 162° |
| 2026-05-03 21:58 | 27.10872 | -82.13623 | 33902 ft | 470 kts | 162° |
| 2026-05-03 21:58 | 27.08031 | -82.11830 | 33340 ft | 466 kts | 162° |
| 2026-05-03 21:58 | 27.05214 | -82.10049 | 32814 ft | 463 kts | 161° |
| 2026-05-03 21:58 | 27.02420 | -82.08279 | 32276 ft | 459 kts | 161° |
| 2026-05-03 21:59 | 26.99652 | -82.06530 | 31749 ft | 456 kts | 160° |
| 2026-05-03 21:59 | 26.96931 | -82.04687 | 31205 ft | 460 kts | 153° |
| 2026-05-03 21:59 | 26.94465 | -82.02342 | 30639 ft | 470 kts | 142° |
| 2026-05-03 21:59 | 26.92216 | -81.99690 | 30132 ft | 468 kts | 141° |
| 2026-05-03 22:00 | 26.89984 | -81.97044 | 29536 ft | 465 kts | 141° |
| 2026-05-03 22:00 | 26.87779 | -81.94425 | 29015 ft | 460 kts | 141° |
| 2026-05-03 22:00 | 26.85590 | -81.91827 | 28482 ft | 457 kts | 141° |
| 2026-05-03 22:00 | 26.83419 | -81.89256 | 27953 ft | 453 kts | 141° |
| 2026-05-03 22:01 | 26.81263 | -81.86709 | 27438 ft | 449 kts | 141° |
| 2026-05-03 22:01 | 26.79117 | -81.84180 | 26906 ft | 446 kts | 141° |
| 2026-05-03 22:01 | 26.76987 | -81.81676 | 26406 ft | 443 kts | 141° |
| 2026-05-03 22:01 | 26.74882 | -81.79209 | 26186 ft | 432 kts | 141° |
| 2026-05-03 22:02 | 26.72815 | -81.76798 | 25838 ft | 427 kts | 141° |
| 2026-05-03 22:02 | 26.70790 | -81.74446 | 25418 ft | 423 kts | 142° |
| 2026-05-03 22:02 | 26.68750 | -81.72084 | 25018 ft | 421 kts | 142° |
| 2026-05-03 22:02 | 26.66723 | -81.69738 | 24616 ft | 418 kts | 142° |
| 2026-05-03 22:03 | 26.64713 | -81.67411 | 24203 ft | 415 kts | 142° |
| 2026-05-03 22:03 | 26.62762 | -81.65033 | 23800 ft | 418 kts | 135° |
| 2026-05-03 22:03 | 26.61019 | -81.62443 | 23360 ft | 415 kts | 134° |
| 2026-05-03 22:03 | 26.59297 | -81.59866 | 22882 ft | 410 kts | 134° |
| 2026-05-03 22:04 | 26.57602 | -81.57331 | 22080 ft | 405 kts | 134° |
| 2026-05-03 22:04 | 26.55922 | -81.54831 | 21270 ft | 400 kts | 134° |
| 2026-05-03 22:04 | 26.54261 | -81.52369 | 20514 ft | 395 kts | 134° |
| 2026-05-03 22:04 | 26.52606 | -81.49921 | 20030 ft | 394 kts | 134° |
| 2026-05-03 22:05 | 26.50956 | -81.47485 | 19548 ft | 392 kts | 133° |
| 2026-05-03 22:05 | 26.49322 | -81.45067 | 19148 ft | 389 kts | 133° |
| 2026-05-03 22:05 | 26.47694 | -81.42655 | 18772 ft | 386 kts | 133° |
| 2026-05-03 22:05 | 26.46075 | -81.40256 | 18294 ft | 386 kts | 133° |
| 2026-05-03 22:06 | 26.44468 | -81.37877 | 17895 ft | 382 kts | 133° |
| 2026-05-03 22:06 | 26.42873 | -81.35517 | 17454 ft | 380 kts | 133° |
| 2026-05-03 22:06 | 26.41295 | -81.33180 | 16880 ft | 374 kts | 133° |
| 2026-05-03 22:06 | 26.39712 | -81.30921 | 16272 ft | 365 kts | 135° |
| 2026-05-03 22:07 | 26.38115 | -81.28733 | 15867 ft | 362 kts | 135° |
| 2026-05-03 22:07 | 26.36505 | -81.26572 | 15524 ft | 360 kts | 135° |
| 2026-05-03 22:07 | 26.34898 | -81.24447 | 15242 ft | 356 kts | 136° |
| 2026-05-03 22:07 | 26.33299 | -81.22347 | 14807 ft | 355 kts | 136° |
| 2026-05-03 22:08 | 26.31697 | -81.20252 | 14356 ft | 356 kts | 135° |
| 2026-05-03 22:08 | 26.30089 | -81.18150 | 13926 ft | 356 kts | 135° |
| 2026-05-03 22:08 | 26.28485 | -81.16052 | 13451 ft | 355 kts | 135° |
| 2026-05-03 22:08 | 26.26890 | -81.13962 | 13026 ft | 353 kts | 135° |
| 2026-05-03 22:09 | 26.25314 | -81.11881 | 12590 ft | 349 kts | 134° |
| 2026-05-03 22:09 | 26.23777 | -81.09836 | 12176 ft | 348 kts | 134° |
| 2026-05-03 22:09 | 26.22214 | -81.07771 | 11746 ft | 347 kts | 134° |
| 2026-05-03 22:10 | 26.19099 | -81.03691 | 10901 ft | 345 kts | 134° |
| 2026-05-03 22:10 | 26.17550 | -81.01666 | 10475 ft | 341 kts | 134° |
| 2026-05-03 22:10 | 26.16047 | -80.99684 | 10245 ft | 329 kts | 131° |
| 2026-05-03 22:10 | 26.14873 | -80.97529 | 10114 ft | 323 kts | 116° |
| 2026-05-03 22:11 | 26.14229 | -80.95143 | 9758 ft | 323 kts | 102° |
| 2026-05-03 22:11 | 26.13834 | -80.92698 | 9442 ft | 320 kts | 102° |
| 2026-05-03 22:11 | 26.13438 | -80.90275 | 9062 ft | 317 kts | 102° |
| 2026-05-03 22:11 | 26.13044 | -80.87879 | 8544 ft | 313 kts | 102° |
| 2026-05-03 22:12 | 26.12652 | -80.85518 | 8075 ft | 309 kts | 102° |
| 2026-05-03 22:12 | 26.12262 | -80.83183 | 7680 ft | 307 kts | 103° |
| 2026-05-03 22:12 | 26.11868 | -80.80836 | 7401 ft | 307 kts | 102° |
| 2026-05-03 22:12 | 26.11485 | -80.78521 | 7149 ft | 303 kts | 102° |
| 2026-05-03 22:13 | 26.11106 | -80.76226 | 6861 ft | 300 kts | 102° |
| 2026-05-03 22:13 | 26.10730 | -80.73961 | 6637 ft | 295 kts | 102° |
| 2026-05-03 22:13 | 26.10356 | -80.71729 | 6490 ft | 293 kts | 102° |
| 2026-05-03 22:13 | 26.09978 | -80.69502 | 6324 ft | 292 kts | 102° |
| 2026-05-03 22:14 | 26.09601 | -80.67290 | 6177 ft | 291 kts | 102° |
| 2026-05-03 22:14 | 26.09226 | -80.65083 | 6024 ft | 290 kts | 102° |
| 2026-05-03 22:14 | 26.08852 | -80.62875 | 5879 ft | 291 kts | 100° |
| 2026-05-03 22:14 | 26.08473 | -80.60641 | 5739 ft | 299 kts | 102° |
| 2026-05-03 22:15 | 26.08079 | -80.58323 | 5588 ft | 307 kts | 102° |
| 2026-05-03 22:15 | 26.07690 | -80.55996 | 5460 ft | 302 kts | 102° |
| 2026-05-03 22:15 | 26.07319 | -80.53771 | 5311 ft | 282 kts | 102° |
| 2026-05-03 22:15 | 26.06971 | -80.51706 | 5193 ft | 261 kts | 102° |
| 2026-05-03 22:16 | 26.06751 | -80.49778 | 5085 ft | 251 kts | 91° |
| 2026-05-03 22:16 | 26.06747 | -80.47883 | 5004 ft | 239 kts | 91° |
| 2026-05-03 22:16 | 26.06742 | -80.46092 | 5010 ft | 224 kts | 91° |
| 2026-05-03 22:16 | 26.06735 | -80.44402 | 5011 ft | 214 kts | 91° |
| 2026-05-03 22:17 | 26.06726 | -80.42752 | 5033 ft | 215 kts | 90° |
| 2026-05-03 22:17 | 26.06719 | -80.41090 | 5021 ft | 216 kts | 91° |
| 2026-05-03 22:17 | 26.06712 | -80.39421 | 5002 ft | 214 kts | 92° |
| 2026-05-03 22:17 | 26.06703 | -80.37780 | 4998 ft | 211 kts | 92° |
| 2026-05-03 22:18 | 26.06694 | -80.36159 | 4855 ft | 207 kts | 91° |
| 2026-05-03 22:18 | 26.06684 | -80.34562 | 4419 ft | 206 kts | 91° |
| 2026-05-03 22:18 | 26.06676 | -80.32983 | 3868 ft | 203 kts | 91° |
| 2026-05-03 22:18 | 26.06668 | -80.31414 | 3327 ft | 201 kts | 90° |
| 2026-05-03 22:19 | 26.06661 | -80.29879 | 3023 ft | 197 kts | 91° |
| 2026-05-03 22:19 | 26.06654 | -80.28374 | 2622 ft | 193 kts | 90° |
| 2026-05-03 22:19 | 26.06647 | -80.26898 | 2090 ft | 189 kts | 89° |
| 2026-05-03 22:19 | 26.06640 | -80.25484 | 1741 ft | 181 kts | 87° |
| 2026-05-03 22:20 | 26.06632 | -80.24133 | 1486 ft | 163 kts | 88° |
| 2026-05-03 22:20 | 26.06625 | -80.22938 | 1270 ft | 148 kts | 87° |
| 2026-05-03 22:20 | 26.06619 | -80.21806 | 1070 ft | 145 kts | 88° |
| 2026-05-03 22:20 | 26.06615 | -80.20712 | 892 ft | 143 kts | 86° |
| 2026-05-03 22:21 | 26.06609 | -80.19612 | 717 ft | 142 kts | 87° |
| 2026-05-03 22:21 | 26.06603 | -80.18511 | 547 ft | 141 kts | 89° |
| 2026-05-03 22:21 | 26.06594 | -80.17408 | 333 ft | 143 kts | 85° |
| 2026-05-03 22:21 | 26.06588 | -80.16300 | 152 ft | 144 kts | 87° |
| 2026-05-03 22:22 | 26.06589 | -80.15211 | 28 ft | 130 kts | 89° |
| 2026-05-03 22:22 | 26.06585 | -80.14345 | 16 ft | 88 kts | 90° |
| 2026-05-03 22:22 | 26.06580 | -80.13893 | 21 ft | 29 kts | 88° |
| 2026-05-03 22:22 | 26.06657 | -80.13754 | 27 ft | 17 kts | 38° |
| 2026-05-03 22:23 | 26.06690 | -80.13721 | 26 ft | 2 kts | 39° |
| 2026-05-03 22:23 | 26.06726 | -80.13717 | 27 ft | 8 kts | 335° |
| 2026-05-03 22:23 | 26.06744 | -80.13793 | 31 ft | 12 kts | 268° |
| 2026-05-03 22:23 | 26.06742 | -80.13898 | 26 ft | 15 kts | 270° |
| 2026-05-03 22:24 | 26.06730 | -80.14026 | 22 ft | 19 kts | 250° |
| 2026-05-03 22:24 | 26.06689 | -80.14150 | 19 ft | 15 kts | 267° |
| 2026-05-03 22:24 | 26.06690 | -80.14279 | 19 ft | 18 kts | 270° |
| 2026-05-03 22:24 | 26.06690 | -80.14410 | 18 ft | 14 kts | 271° |
| 2026-05-03 22:25 | 26.06692 | -80.14535 | 17 ft | 18 kts | 270° |
| 2026-05-03 22:25 | 26.06692 | -80.14654 | 18 ft | 14 kts | 270° |
| 2026-05-03 22:25 | 26.06693 | -80.14767 | 19 ft | 15 kts | 270° |
| 2026-05-03 22:25 | 26.06694 | -80.14881 | 21 ft | 15 kts | 270° |
| 2026-05-03 22:26 | 26.06694 | -80.14985 | 22 ft | 9 kts | 270° |
| 2026-05-03 22:26 | 26.06694 | -80.15016 | 23 ft | 0 kts | 270° |